sensor_id;sensor_type;location;lat;lon;timestamp;pressure;altitude;pressure_sealevel;temperature;humidity
61682;BME280;47577;43.610;25.010;2023-02-16T00:01:34;101918.88;;;1.40;83.36
61682;BME280;47577;43.610;25.010;2023-02-16T00:04:00;101926.47;;;1.63;83.92
61682;BME280;47577;43.610;25.010;2023-02-16T00:06:27;101932.28;;;1.51;80.87
61682;BME280;47577;43.610;25.010;2023-02-16T00:08:55;101908.81;;;1.56;83.92
61682;BME280;47577;43.610;25.010;2023-02-16T00:11:32;101917.16;;;1.74;82.31
61682;BME280;47577;43.610;25.010;2023-02-16T00:14:18;101914.63;;;1.77;83.33
61682;BME280;47577;43.610;25.010;2023-02-16T00:16:47;101906.97;;;1.85;82.50
61682;BME280;47577;43.610;25.010;2023-02-16T00:19:20;101910.97;;;2.04;81.02
61682;BME280;47577;43.610;25.010;2023-02-16T00:21:48;101909.25;;;2.06;81.83
61682;BME280;47577;43.610;25.010;2023-02-16T00:24:14;101901.53;;;2.12;81.99
61682;BME280;47577;43.610;25.010;2023-02-16T00:26:40;101900.81;;;2.19;81.36
61682;BME280;47577;43.610;25.010;2023-02-16T00:29:12;101908.09;;;2.31;80.75
61682;BME280;47577;43.610;25.010;2023-02-16T00:31:38;101902.81;;;2.30;80.48
61682;BME280;47577;43.610;25.010;2023-02-16T00:34:25;101894.84;;;2.27;80.57
61682;BME280;47577;43.610;25.010;2023-02-16T00:36:51;101904.63;;;2.32;80.56
61682;BME280;47577;43.610;25.010;2023-02-16T00:39:17;101894.78;;;2.22;80.66
61682;BME280;47577;43.610;25.010;2023-02-16T00:41:43;101890.47;;;2.26;80.57
61682;BME280;47577;43.610;25.010;2023-02-16T00:44:17;101896.59;;;2.26;80.17
61682;BME280;47577;43.610;25.010;2023-02-16T00:46:45;101898.44;;;2.29;80.03
61682;BME280;47577;43.610;25.010;2023-02-16T00:49:16;101897.44;;;2.24;80.55
61682;BME280;47577;43.610;25.010;2023-02-16T00:51:43;101898.44;;;2.29;79.94
61682;BME280;47577;43.610;25.010;2023-02-16T00:54:09;101884.03;;;2.13;80.54
61682;BME280;47577;43.610;25.010;2023-02-16T00:56:36;101892.75;;;2.12;80.63
61682;BME280;47577;43.610;25.010;2023-02-16T00:59:04;101885.72;;;2.09;80.77
61682;BME280;47577;43.610;25.010;2023-02-16T01:01:33;101896.50;;;2.22;80.24
61682;BME280;47577;43.610;25.010;2023-02-16T01:04:00;101892.94;;;2.19;80.21
61682;BME280;47577;43.610;25.010;2023-02-16T01:06:26;101887.44;;;2.09;80.19
61682;BME280;47577;43.610;25.010;2023-02-16T01:09:13;101883.94;;;2.08;80.66
61682;BME280;47577;43.610;25.010;2023-02-16T01:12:03;101877.97;;;2.15;79.68
61682;BME280;47577;43.610;25.010;2023-02-16T01:14:31;101883.41;;;2.23;80.52
61682;BME280;47577;43.610;25.010;2023-02-16T01:16:57;101887.69;;;2.19;79.50
61682;BME280;47577;43.610;25.010;2023-02-16T01:19:23;101886.97;;;2.27;79.62
61682;BME280;47577;43.610;25.010;2023-02-16T01:21:49;101870.25;;;2.22;78.44
61682;BME280;47577;43.610;25.010;2023-02-16T01:24:15;101883.63;;;2.32;78.38
61682;BME280;47577;43.610;25.010;2023-02-16T01:26:45;101881.34;;;2.46;77.34
61682;BME280;47577;43.610;25.010;2023-02-16T01:29:15;101884.88;;;2.48;76.16
61682;BME280;47577;43.610;25.010;2023-02-16T01:31:41;101867.78;;;2.28;74.99
61682;BME280;47577;43.610;25.010;2023-02-16T01:34:07;101882.00;;;2.37;75.54
61682;BME280;47577;43.610;25.010;2023-02-16T01:36:35;101884.63;;;2.37;76.27
61682;BME280;47577;43.610;25.010;2023-02-16T01:39:02;101871.38;;;2.33;75.24
61682;BME280;47577;43.610;25.010;2023-02-16T01:44:52;101885.53;;;2.40;75.79
61682;BME280;47577;43.610;25.010;2023-02-16T01:47:53;101876.94;;;2.45;75.15
61682;BME280;47577;43.610;25.010;2023-02-16T01:50:26;101876.97;;;2.47;74.47
61682;BME280;47577;43.610;25.010;2023-02-16T01:53:01;101876.22;;;2.14;74.29
61682;BME280;47577;43.610;25.010;2023-02-16T01:55:37;101864.59;;;1.70;79.06
61682;BME280;47577;43.610;25.010;2023-02-16T02:06:04;101883.44;;;1.55;76.08
61682;BME280;47577;43.610;25.010;2023-02-16T02:11:31;101878.94;;;1.49;76.18
61682;BME280;47577;43.610;25.010;2023-02-16T02:14:02;101872.56;;;1.41;78.81
61682;BME280;47577;43.610;25.010;2023-02-16T02:16:30;101880.38;;;1.07;78.83
61682;BME280;47577;43.610;25.010;2023-02-16T02:18:56;101877.41;;;0.95;78.73
61682;BME280;47577;43.610;25.010;2023-02-16T02:21:35;101871.78;;;1.13;79.87
61682;BME280;47577;43.610;25.010;2023-02-16T02:29:55;101872.94;;;0.91;79.81
61682;BME280;47577;43.610;25.010;2023-02-16T02:35:21;101872.88;;;0.89;78.16
61682;BME280;47577;43.610;25.010;2023-02-16T02:38:15;101862.38;;;0.88;77.04
61682;BME280;47577;43.610;25.010;2023-02-16T02:43:26;101863.19;;;0.58;78.21
61682;BME280;47577;43.610;25.010;2023-02-16T02:46:00;101871.91;;;0.57;78.28
61682;BME280;47577;43.610;25.010;2023-02-16T02:48:30;101876.84;;;0.48;78.70
61682;BME280;47577;43.610;25.010;2023-02-16T02:50:57;101876.81;;;0.19;78.64
61682;BME280;47577;43.610;25.010;2023-02-16T02:53:51;101874.66;;;0.06;80.25
61682;BME280;47577;43.610;25.010;2023-02-16T02:56:39;101875.31;;;-0.02;81.73
61682;BME280;47577;43.610;25.010;2023-02-16T02:59:25;101884.31;;;-0.19;80.92
61682;BME280;47577;43.610;25.010;2023-02-16T03:02:11;101877.16;;;-0.23;80.91
61682;BME280;47577;43.610;25.010;2023-02-16T03:04:38;101878.91;;;-0.24;80.36
61682;BME280;47577;43.610;25.010;2023-02-16T03:07:04;101884.63;;;-0.35;81.16
61682;BME280;47577;43.610;25.010;2023-02-16T03:09:31;101889.25;;;-0.27;80.28
61682;BME280;47577;43.610;25.010;2023-02-16T03:11:57;101880.50;;;-0.29;80.34
61682;BME280;47577;43.610;25.010;2023-02-16T03:14:51;101891.00;;;-0.27;80.17
61682;BME280;47577;43.610;25.010;2023-02-16T03:17:21;101887.13;;;-0.39;81.18
61682;BME280;47577;43.610;25.010;2023-02-16T03:20:08;101893.50;;;-0.30;79.17
61682;BME280;47577;43.610;25.010;2023-02-16T03:22:55;101890.88;;;-0.30;77.92
61682;BME280;47577;43.610;25.010;2023-02-16T03:25:40;101893.06;;;-0.43;79.44
61682;BME280;47577;43.610;25.010;2023-02-16T03:28:27;101884.81;;;-0.55;80.38
61682;BME280;47577;43.610;25.010;2023-02-16T03:31:31;101892.97;;;-0.70;79.51
61682;BME280;47577;43.610;25.010;2023-02-16T03:33:58;101893.19;;;-0.88;80.77
61682;BME280;47577;43.610;25.010;2023-02-16T03:36:25;101897.97;;;-1.00;83.00
61682;BME280;47577;43.610;25.010;2023-02-16T03:38:56;101897.38;;;-1.16;83.50
61682;BME280;47577;43.610;25.010;2023-02-16T03:41:23;101889.38;;;-1.43;86.03
61682;BME280;47577;43.610;25.010;2023-02-16T03:43:48;101898.19;;;-1.41;87.78
61682;BME280;47577;43.610;25.010;2023-02-16T03:46:14;101897.94;;;-1.24;86.45
61682;BME280;47577;43.610;25.010;2023-02-16T03:48:40;101887.50;;;-1.24;84.37
61682;BME280;47577;43.610;25.010;2023-02-16T03:51:05;101907.13;;;-1.12;85.53
61682;BME280;47577;43.610;25.010;2023-02-16T03:53:31;101898.50;;;-1.09;81.89
61682;BME280;47577;43.610;25.010;2023-02-16T03:55:57;101898.63;;;-1.06;81.72
61682;BME280;47577;43.610;25.010;2023-02-16T03:58:23;101904.19;;;-0.97;84.27
61682;BME280;47577;43.610;25.010;2023-02-16T04:00:50;101906.88;;;-0.95;84.95
61682;BME280;47577;43.610;25.010;2023-02-16T04:03:16;101898.03;;;-0.99;85.04
61682;BME280;47577;43.610;25.010;2023-02-16T04:05:42;101898.38;;;-1.12;86.39
61682;BME280;47577;43.610;25.010;2023-02-16T04:08:08;101904.84;;;-1.02;87.16
61682;BME280;47577;43.610;25.010;2023-02-16T04:10:34;101904.03;;;-1.01;86.83
61682;BME280;47577;43.610;25.010;2023-02-16T04:13:00;101901.88;;;-0.89;85.86
61682;BME280;47577;43.610;25.010;2023-02-16T04:15:28;101898.28;;;-0.91;85.47
61682;BME280;47577;43.610;25.010;2023-02-16T04:17:54;101887.97;;;-0.88;85.26
61682;BME280;47577;43.610;25.010;2023-02-16T04:20:23;101895.97;;;-0.83;85.58
61682;BME280;47577;43.610;25.010;2023-02-16T04:22:49;101892.72;;;-0.78;86.40
61682;BME280;47577;43.610;25.010;2023-02-16T04:43:21;101913.38;;;-0.84;86.57
61682;BME280;47577;43.610;25.010;2023-02-16T04:45:46;101906.38;;;-0.85;86.23
61682;BME280;47577;43.610;25.010;2023-02-16T04:48:12;101906.47;;;-0.82;85.55
61682;BME280;47577;43.610;25.010;2023-02-16T04:50:37;101899.09;;;-0.94;84.60
61682;BME280;47577;43.610;25.010;2023-02-16T04:53:03;101898.03;;;-0.99;84.73
61682;BME280;47577;43.610;25.010;2023-02-16T04:55:28;101901.22;;;-1.06;84.33
61682;BME280;47577;43.610;25.010;2023-02-16T04:57:55;101899.06;;;-1.18;84.41
61682;BME280;47577;43.610;25.010;2023-02-16T05:00:21;101896.31;;;-1.21;85.33
61682;BME280;47577;43.610;25.010;2023-02-16T05:02:46;101895.19;;;-1.27;84.90
61682;BME280;47577;43.610;25.010;2023-02-16T05:05:12;101892.16;;;-1.38;85.58
61682;BME280;47577;43.610;25.010;2023-02-16T05:07:38;101903.47;;;-1.38;85.63
61682;BME280;47577;43.610;25.010;2023-02-16T05:10:04;101893.97;;;-1.37;85.28
61682;BME280;47577;43.610;25.010;2023-02-16T05:12:30;101897.06;;;-1.46;85.65
61682;BME280;47577;43.610;25.010;2023-02-16T05:15:21;101902.91;;;-1.31;86.28
61682;BME280;47577;43.610;25.010;2023-02-16T05:17:46;101900.81;;;-1.17;87.16
61682;BME280;47577;43.610;25.010;2023-02-16T05:20:12;101901.91;;;-1.12;87.34
61682;BME280;47577;43.610;25.010;2023-02-16T05:22:38;101902.97;;;-1.06;87.70
61682;BME280;47577;43.610;25.010;2023-02-16T05:25:05;101901.53;;;-0.98;86.66
61682;BME280;47577;43.610;25.010;2023-02-16T05:27:31;101895.63;;;-0.93;87.01
61682;BME280;47577;43.610;25.010;2023-02-16T05:29:57;101904.13;;;-0.98;85.41
61682;BME280;47577;43.610;25.010;2023-02-16T05:32:22;101900.53;;;-1.02;85.09
61682;BME280;47577;43.610;25.010;2023-02-16T05:34:48;101903.25;;;-0.99;84.69
61682;BME280;47577;43.610;25.010;2023-02-16T05:37:16;101910.13;;;-1.01;86.15
61682;BME280;47577;43.610;25.010;2023-02-16T05:39:43;101907.91;;;-0.90;87.38
61682;BME280;47577;43.610;25.010;2023-02-16T05:42:09;101902.00;;;-0.84;87.06
61682;BME280;47577;43.610;25.010;2023-02-16T05:44:35;101907.16;;;-0.87;87.44
61682;BME280;47577;43.610;25.010;2023-02-16T05:47:02;101916.31;;;-0.75;87.72
61682;BME280;47577;43.610;25.010;2023-02-16T05:49:27;101897.09;;;-0.77;86.89
61682;BME280;47577;43.610;25.010;2023-02-16T05:51:53;101911.25;;;-0.70;87.21
61682;BME280;47577;43.610;25.010;2023-02-16T05:54:19;101911.31;;;-0.68;87.65
61682;BME280;47577;43.610;25.010;2023-02-16T05:56:47;101923.59;;;-0.66;87.33
61682;BME280;47577;43.610;25.010;2023-02-16T05:59:13;101927.31;;;-0.59;87.83
61682;BME280;47577;43.610;25.010;2023-02-16T06:01:39;101928.94;;;-0.63;87.24
61682;BME280;47577;43.610;25.010;2023-02-16T06:04:10;101923.91;;;-0.58;88.44
61682;BME280;47577;43.610;25.010;2023-02-16T06:06:37;101917.53;;;-0.41;87.82
61682;BME280;47577;43.610;25.010;2023-02-16T06:09:04;101929.94;;;-0.35;87.97
61682;BME280;47577;43.610;25.010;2023-02-16T06:11:30;101915.50;;;-0.24;85.47
61682;BME280;47577;43.610;25.010;2023-02-16T06:14:09;101928.97;;;-0.13;84.07
61682;BME280;47577;43.610;25.010;2023-02-16T06:16:37;101929.38;;;-0.01;84.17
61682;BME280;47577;43.610;25.010;2023-02-16T06:19:04;101919.16;;;0.07;83.52
61682;BME280;47577;43.610;25.010;2023-02-16T06:21:30;101934.69;;;0.28;84.48
61682;BME280;47577;43.610;25.010;2023-02-16T06:23:56;101929.66;;;0.34;85.84
61682;BME280;47577;43.610;25.010;2023-02-16T06:26:22;101928.28;;;0.46;85.18
61682;BME280;47577;43.610;25.010;2023-02-16T06:28:48;101933.97;;;0.61;87.02
61682;BME280;47577;43.610;25.010;2023-02-16T06:31:13;101935.41;;;0.79;87.10
61682;BME280;47577;43.610;25.010;2023-02-16T06:33:39;101931.34;;;0.88;85.78
61682;BME280;47577;43.610;25.010;2023-02-16T06:36:05;101934.09;;;0.93;83.89
61682;BME280;47577;43.610;25.010;2023-02-16T06:38:31;101934.06;;;0.91;83.35
61682;BME280;47577;43.610;25.010;2023-02-16T06:40:57;101932.63;;;1.03;83.67
61682;BME280;47577;43.610;25.010;2023-02-16T06:43:22;101932.91;;;1.12;82.98
61682;BME280;47577;43.610;25.010;2023-02-16T06:45:48;101930.25;;;1.11;82.85
61682;BME280;47577;43.610;25.010;2023-02-16T06:48:14;101934.63;;;1.12;82.69
61682;BME280;47577;43.610;25.010;2023-02-16T06:50:39;101935.09;;;1.27;84.16
61682;BME280;47577;43.610;25.010;2023-02-16T06:53:05;101929.22;;;1.36;82.74
61682;BME280;47577;43.610;25.010;2023-02-16T06:55:31;101925.78;;;1.69;84.53
61682;BME280;47577;43.610;25.010;2023-02-16T06:58:05;101931.94;;;1.71;84.13
61682;BME280;47577;43.610;25.010;2023-02-16T07:00:32;101928.81;;;1.86;84.32
61682;BME280;47577;43.610;25.010;2023-02-16T07:02:59;101928.38;;;2.02;83.55
61682;BME280;47577;43.610;25.010;2023-02-16T07:05:25;101928.75;;;2.16;83.46
61682;BME280;47577;43.610;25.010;2023-02-16T07:07:50;101926.66;;;2.39;83.35
61682;BME280;47577;43.610;25.010;2023-02-16T07:10:16;101931.72;;;2.68;82.85
61682;BME280;47577;43.610;25.010;2023-02-16T07:12:42;101921.63;;;2.86;82.59
61682;BME280;47577;43.610;25.010;2023-02-16T07:15:08;101931.72;;;3.07;81.00
61682;BME280;47577;43.610;25.010;2023-02-16T07:17:34;101930.22;;;3.20;80.12
61682;BME280;47577;43.610;25.010;2023-02-16T07:20:00;101926.31;;;3.42;79.25
61682;BME280;47577;43.610;25.010;2023-02-16T07:22:26;101917.75;;;3.53;78.45
61682;BME280;47577;43.610;25.010;2023-02-16T07:24:53;101934.31;;;3.47;77.94
61682;BME280;47577;43.610;25.010;2023-02-16T07:27:22;101925.00;;;3.64;77.87
61682;BME280;47577;43.610;25.010;2023-02-16T07:29:48;101917.31;;;3.77;77.88
61682;BME280;47577;43.610;25.010;2023-02-16T07:32:13;101920.38;;;4.01;77.09
61682;BME280;47577;43.610;25.010;2023-02-16T07:34:39;101910.88;;;4.10;75.39
61682;BME280;47577;43.610;25.010;2023-02-16T07:37:05;101910.16;;;4.18;75.60
61682;BME280;47577;43.610;25.010;2023-02-16T07:39:30;101920.06;;;4.35;76.06
61682;BME280;47577;43.610;25.010;2023-02-16T07:41:56;101906.09;;;4.39;74.20
61682;BME280;47577;43.610;25.010;2023-02-16T07:44:21;101907.97;;;4.46;74.43
61682;BME280;47577;43.610;25.010;2023-02-16T07:46:47;101920.53;;;4.64;73.19
61682;BME280;47577;43.610;25.010;2023-02-16T07:49:13;101911.84;;;4.73;73.60
61682;BME280;47577;43.610;25.010;2023-02-16T07:51:42;101905.00;;;4.83;72.26
61682;BME280;47577;43.610;25.010;2023-02-16T07:54:10;101910.25;;;4.84;72.78
61682;BME280;47577;43.610;25.010;2023-02-16T07:56:35;101906.88;;;4.93;71.49
61682;BME280;47577;43.610;25.010;2023-02-16T07:59:02;101908.88;;;5.11;71.52
61682;BME280;47577;43.610;25.010;2023-02-16T08:01:28;101898.00;;;4.86;71.08
61682;BME280;47577;43.610;25.010;2023-02-16T08:03:55;101890.22;;;4.97;70.74
61682;BME280;47577;43.610;25.010;2023-02-16T08:06:21;101907.78;;;4.97;71.58
61682;BME280;47577;43.610;25.010;2023-02-16T08:08:47;101900.97;;;5.12;70.73
61682;BME280;47577;43.610;25.010;2023-02-16T08:11:15;101901.97;;;5.22;71.04
61682;BME280;47577;43.610;25.010;2023-02-16T08:13:42;101904.47;;;5.11;70.65
61682;BME280;47577;43.610;25.010;2023-02-16T08:16:13;101904.41;;;5.07;70.87
61682;BME280;47577;43.610;25.010;2023-02-16T08:18:39;101905.56;;;5.29;71.26
61682;BME280;47577;43.610;25.010;2023-02-16T08:21:14;101909.13;;;5.34;70.81
61682;BME280;47577;43.610;25.010;2023-02-16T08:23:45;101907.44;;;5.39;71.18
61682;BME280;47577;43.610;25.010;2023-02-16T08:26:15;101895.25;;;5.47;71.11
61682;BME280;47577;43.610;25.010;2023-02-16T08:28:42;101896.34;;;5.70;68.94
61682;BME280;47577;43.610;25.010;2023-02-16T08:31:15;101894.88;;;5.96;68.21
61682;BME280;47577;43.610;25.010;2023-02-16T08:33:41;101888.81;;;6.08;67.32
61682;BME280;47577;43.610;25.010;2023-02-16T08:36:35;101899.44;;;6.16;66.53
61682;BME280;47577;43.610;25.010;2023-02-16T08:39:04;101895.06;;;6.19;66.12
61682;BME280;47577;43.610;25.010;2023-02-16T08:41:33;101907.56;;;6.42;65.11
61682;BME280;47577;43.610;25.010;2023-02-16T08:44:02;101906.56;;;6.26;67.27
61682;BME280;47577;43.610;25.010;2023-02-16T08:46:29;101900.38;;;6.22;67.95
61682;BME280;47577;43.610;25.010;2023-02-16T08:48:55;101904.94;;;6.42;66.38
61682;BME280;47577;43.610;25.010;2023-02-16T08:51:27;101905.03;;;6.53;65.83
61682;BME280;47577;43.610;25.010;2023-02-16T08:53:53;101905.00;;;6.51;66.92
61682;BME280;47577;43.610;25.010;2023-02-16T08:56:20;101899.91;;;6.82;65.44
61682;BME280;47577;43.610;25.010;2023-02-16T08:58:46;101906.13;;;6.89;63.87
61682;BME280;47577;43.610;25.010;2023-02-16T09:01:12;101903.50;;;6.97;64.47
61682;BME280;47577;43.610;25.010;2023-02-16T09:03:39;101908.00;;;7.14;64.62
61682;BME280;47577;43.610;25.010;2023-02-16T09:06:08;101899.16;;;7.05;64.50
61682;BME280;47577;43.610;25.010;2023-02-16T09:08:35;101911.56;;;7.20;62.61
61682;BME280;47577;43.610;25.010;2023-02-16T09:11:06;101896.63;;;7.34;62.77
61682;BME280;47577;43.610;25.010;2023-02-16T09:13:33;101897.44;;;7.25;63.66
61682;BME280;47577;43.610;25.010;2023-02-16T09:16:04;101903.75;;;7.58;61.93
61682;BME280;47577;43.610;25.010;2023-02-16T09:18:30;101901.97;;;7.57;63.32
61682;BME280;47577;43.610;25.010;2023-02-16T09:21:01;101906.41;;;7.69;61.78
61682;BME280;47577;43.610;25.010;2023-02-16T09:23:27;101887.88;;;7.75;60.71
61682;BME280;47577;43.610;25.010;2023-02-16T09:25:53;101895.84;;;7.95;61.36
61682;BME280;47577;43.610;25.010;2023-02-16T09:28:18;101896.72;;;7.93;61.36
61682;BME280;47577;43.610;25.010;2023-02-16T09:30:45;101888.78;;;7.85;62.60
61682;BME280;47577;43.610;25.010;2023-02-16T09:33:11;101893.19;;;7.97;63.25
61682;BME280;47577;43.610;25.010;2023-02-16T09:35:40;101885.25;;;8.01;62.90
61682;BME280;47577;43.610;25.010;2023-02-16T09:38:05;101893.22;;;8.11;62.03
61682;BME280;47577;43.610;25.010;2023-02-16T09:40:36;101884.38;;;8.30;61.85
61682;BME280;47577;43.610;25.010;2023-02-16T09:43:18;101888.81;;;8.33;61.35
61682;BME280;47577;43.610;25.010;2023-02-16T09:45:50;101874.66;;;8.49;59.42
61682;BME280;47577;43.610;25.010;2023-02-16T09:48:33;101872.84;;;8.71;57.77
61682;BME280;47577;43.610;25.010;2023-02-16T09:51:00;101877.25;;;8.78;58.43
61682;BME280;47577;43.610;25.010;2023-02-16T09:53:38;101874.59;;;8.78;58.83
61682;BME280;47577;43.610;25.010;2023-02-16T09:56:34;101875.44;;;8.99;58.68
61682;BME280;47577;43.610;25.010;2023-02-16T09:59:40;101868.34;;;8.93;61.18
61682;BME280;47577;43.610;25.010;2023-02-16T10:04:54;101859.41;;;9.19;58.52
61682;BME280;47577;43.610;25.010;2023-02-16T10:09:50;101852.13;;;9.52;56.68
61682;BME280;47577;43.610;25.010;2023-02-16T10:12:22;101851.13;;;9.70;56.72
61682;BME280;47577;43.610;25.010;2023-02-16T10:14:57;101844.78;;;9.89;54.49
61682;BME280;47577;43.610;25.010;2023-02-16T10:20:04;101842.13;;;9.91;54.10
61682;BME280;47577;43.610;25.010;2023-02-16T10:22:50;101842.13;;;9.89;54.63
61682;BME280;47577;43.610;25.010;2023-02-16T10:25:26;101842.19;;;9.85;53.74
61682;BME280;47577;43.610;25.010;2023-02-16T10:28:20;101834.91;;;10.04;55.90
61682;BME280;47577;43.610;25.010;2023-02-16T10:30:50;101832.19;;;10.12;54.00
61682;BME280;47577;43.610;25.010;2023-02-16T10:33:33;101830.38;;;10.17;53.71
61682;BME280;47577;43.610;25.010;2023-02-16T10:36:13;101830.19;;;10.41;57.06
61682;BME280;47577;43.610;25.010;2023-02-16T10:44:02;101817.78;;;11.13;54.52
61682;BME280;47577;43.610;25.010;2023-02-16T10:46:33;101814.88;;;11.30;54.01
61682;BME280;47577;43.610;25.010;2023-02-16T10:49:01;101805.09;;;11.32;54.84
61682;BME280;47577;43.610;25.010;2023-02-16T10:51:32;101816.34;;;11.51;54.68
61682;BME280;47577;43.610;25.010;2023-02-16T10:54:09;101810.28;;;11.40;52.76
61682;BME280;47577;43.610;25.010;2023-02-16T10:56:52;101802.16;;;11.51;53.54
61682;BME280;47577;43.610;25.010;2023-02-16T10:59:21;101802.91;;;11.59;53.26
61682;BME280;47577;43.610;25.010;2023-02-16T11:01:49;101799.25;;;11.68;52.72
61682;BME280;47577;43.610;25.010;2023-02-16T11:04:29;101790.25;;;11.74;50.75
61682;BME280;47577;43.610;25.010;2023-02-16T11:07:09;101785.22;;;11.57;49.82
61682;BME280;47577;43.610;25.010;2023-02-16T11:09:36;101787.94;;;11.52;53.13
61682;BME280;47577;43.610;25.010;2023-02-16T11:12:19;101773.91;;;11.41;52.68
61682;BME280;47577;43.610;25.010;2023-02-16T11:15:07;101768.31;;;11.56;53.33
61682;BME280;47577;43.610;25.010;2023-02-16T11:17:51;101781.38;;;11.75;50.52
61682;BME280;47577;43.610;25.010;2023-02-16T11:25:57;101759.03;;;11.82;55.03
61682;BME280;47577;43.610;25.010;2023-02-16T11:28:35;101765.91;;;11.97;50.64
61682;BME280;47577;43.610;25.010;2023-02-16T11:34:03;101747.63;;;12.25;50.40
61682;BME280;47577;43.610;25.010;2023-02-16T11:36:34;101752.13;;;12.21;49.42
61682;BME280;47577;43.610;25.010;2023-02-16T11:41:33;101730.88;;;12.62;47.81
61682;BME280;47577;43.610;25.010;2023-02-16T11:44:01;101729.72;;;12.74;47.51
61682;BME280;47577;43.610;25.010;2023-02-16T11:46:28;101722.44;;;12.80;48.94
61682;BME280;47577;43.610;25.010;2023-02-16T11:49:28;101724.34;;;12.75;47.16
61682;BME280;47577;43.610;25.010;2023-02-16T11:51:55;101710.31;;;12.66;45.65
61682;BME280;47577;43.610;25.010;2023-02-16T11:54:21;101714.44;;;12.80;47.26
61682;BME280;47577;43.610;25.010;2023-02-16T11:57:05;101721.00;;;13.06;49.20
61682;BME280;47577;43.610;25.010;2023-02-16T11:59:37;101708.97;;;12.87;48.62
61682;BME280;47577;43.610;25.010;2023-02-16T12:02:18;101698.34;;;12.85;48.34
61682;BME280;47577;43.610;25.010;2023-02-16T12:45:15;101641.78;;;13.05;40.81
61682;BME280;47577;43.610;25.010;2023-02-16T12:47:48;101646.91;;;13.14;40.48
61682;BME280;47577;43.610;25.010;2023-02-16T12:50:20;101636.19;;;13.16;40.85
61682;BME280;47577;43.610;25.010;2023-02-16T12:55:31;101637.47;;;13.37;43.23
61682;BME280;47577;43.610;25.010;2023-02-16T12:58:09;101643.63;;;13.41;42.02
61682;BME280;47577;43.610;25.010;2023-02-16T13:00:48;101640.03;;;13.42;42.23
61682;BME280;47577;43.610;25.010;2023-02-16T13:11:42;101631.75;;;13.52;40.80
61682;BME280;47577;43.610;25.010;2023-02-16T13:14:16;101622.84;;;13.52;38.90
61682;BME280;47577;43.610;25.010;2023-02-16T13:16:52;101623.22;;;13.38;39.95
61682;BME280;47577;43.610;25.010;2023-02-16T13:19:20;101618.94;;;13.29;39.70
61682;BME280;47577;43.610;25.010;2023-02-16T13:22:05;101608.88;;;13.41;40.26
61682;BME280;47577;43.610;25.010;2023-02-16T13:25:11;101610.59;;;13.43;44.27
61682;BME280;47577;43.610;25.010;2023-02-16T13:28:11;101611.34;;;13.48;39.17
61682;BME280;47577;43.610;25.010;2023-02-16T13:33:55;101595.13;;;13.56;40.81
61682;BME280;47577;43.610;25.010;2023-02-16T13:36:53;101601.25;;;13.60;42.00
61682;BME280;47577;43.610;25.010;2023-02-16T13:42:36;101585.09;;;13.64;41.68
61682;BME280;47577;43.610;25.010;2023-02-16T13:45:18;101593.28;;;13.89;41.17
61682;BME280;47577;43.610;25.010;2023-02-16T13:47:45;101575.47;;;13.90;41.44
61682;BME280;47577;43.610;25.010;2023-02-16T13:52:47;101580.56;;;13.98;42.18
61682;BME280;47577;43.610;25.010;2023-02-16T13:55:32;101575.59;;;14.15;41.29
61682;BME280;47577;43.610;25.010;2023-02-16T13:58:27;101579.81;;;14.24;41.51
61682;BME280;47577;43.610;25.010;2023-02-16T14:00:53;101573.66;;;14.20;40.26
61682;BME280;47577;43.610;25.010;2023-02-16T14:08:28;101564.59;;;14.26;41.82
61682;BME280;47577;43.610;25.010;2023-02-16T14:18:54;101557.97;;;14.38;41.72
61682;BME280;47577;43.610;25.010;2023-02-16T14:21:36;101565.66;;;14.49;41.45
61682;BME280;47577;43.610;25.010;2023-02-16T14:24:05;101560.69;;;14.36;42.93
61682;BME280;47577;43.610;25.010;2023-02-16T14:26:51;101556.97;;;14.42;40.70
61682;BME280;47577;43.610;25.010;2023-02-16T14:29:22;101555.66;;;14.55;40.35
61682;BME280;47577;43.610;25.010;2023-02-16T14:31:59;101561.88;;;14.56;40.77
61682;BME280;47577;43.610;25.010;2023-02-16T14:34:33;101551.38;;;14.50;41.97
61682;BME280;47577;43.610;25.010;2023-02-16T14:39:43;101545.25;;;13.86;41.13
61682;BME280;47577;43.610;25.010;2023-02-16T14:42:31;101552.72;;;13.75;42.63
61682;BME280;47577;43.610;25.010;2023-02-16T14:51:33;101557.31;;;13.03;45.26
61682;BME280;47577;43.610;25.010;2023-02-16T14:56:53;101545.63;;;12.72;45.62
61682;BME280;47577;43.610;25.010;2023-02-16T15:01:58;101542.66;;;12.47;46.25
61682;BME280;47577;43.610;25.010;2023-02-16T15:04:29;101551.00;;;12.33;47.25
61682;BME280;47577;43.610;25.010;2023-02-16T15:06:56;101530.94;;;12.17;47.11
61682;BME280;47577;43.610;25.010;2023-02-16T15:09:41;101536.81;;;11.92;48.04
61682;BME280;47577;43.610;25.010;2023-02-16T15:12:10;101532.47;;;11.85;47.95
61682;BME280;47577;43.610;25.010;2023-02-16T15:17:29;101546.34;;;11.57;48.96
61682;BME280;47577;43.610;25.010;2023-02-16T15:20:23;101532.34;;;11.47;48.93
61682;BME280;47577;43.610;25.010;2023-02-16T15:22:49;101523.69;;;11.36;49.22
61682;BME280;47577;43.610;25.010;2023-02-16T15:25:21;101529.97;;;11.30;49.56
61682;BME280;47577;43.610;25.010;2023-02-16T15:27:56;101525.84;;;11.14;49.54
61682;BME280;47577;43.610;25.010;2023-02-16T15:30:30;101537.78;;;10.91;50.34
61682;BME280;47577;43.610;25.010;2023-02-16T15:33:03;101531.13;;;10.64;49.68
61682;BME280;47577;43.610;25.010;2023-02-16T15:35:37;101520.72;;;10.50;51.80
61682;BME280;47577;43.610;25.010;2023-02-16T15:40:41;101520.53;;;10.00;51.99
61682;BME280;47577;43.610;25.010;2023-02-16T15:45:50;101528.19;;;9.54;53.08
61682;BME280;47577;43.610;25.010;2023-02-16T15:50:53;101532.44;;;8.83;54.33
61682;BME280;47577;43.610;25.010;2023-02-16T15:56:19;101519.50;;;8.35;55.76